PWSweather.com
Personal Weather Stations
Station Observations
WD4JKH
Forsyth, GA 31029

Forsyth, GA 31029

Lat: 33.033225, Lon: -83.927995

Elevation: 709

Station Type: Davis Vantage VUE

High Low Average
Temperature 66.1°F18.9°C 53.0°F11.7°C 58.9°F14.9°C
Dew Point 65.3°F18.5°C 42.5°F5.8°C 55.6°F13.1°C
Winds 5.7 mph 9.2 kmh Calm Calm 2.0 mph SSE3.2 kmh SSE
Wind Gusts 16.0 mph25.7 kmh 1.0 mph1.6 kmh 8.0 mph12.9 kmh
Humidity 98% 60% 90%
Pressure 30.05 in1017.6 mb 29.76 in1007.8 mb -
Precipitation 1.03 in26.2 mm - -
Hour Temp Dew Point Humidity Winds Wind Gusts Pressure Precip Precip Rate Daily Precip Total
12:00 AM 56.8°F13.8°C 43.2°F6.2°C 60% 1.0 mph S1.6 kmh S 2.0 mph3.2 kmh 30.05 in1017.6 mb 0.00 in0.0 mm 0.00 in0.0 mm 0.00 in0.0 mm
12:05 AM 56.7°F13.7°C 43.1°F6.2°C 60% 1.7 mph S2.7 kmh S 4.0 mph6.4 kmh 30.05 in1017.6 mb 0.00 in0.0 mm 0.00 in0.0 mm 0.00 in0.0 mm
12:10 AM 56.7°F13.7°C 43.1°F6.2°C 60% 1.0 mph SE1.6 kmh SE 5.0 mph8.0 kmh 30.05 in1017.6 mb 0.00 in0.0 mm 0.00 in0.0 mm 0.00 in0.0 mm
12:15 AM 56.7°F13.7°C 43.1°F6.2°C 60% 1.9 mph SE3.1 kmh SE 5.0 mph8.0 kmh 30.05 in1017.6 mb 0.00 in0.0 mm 0.00 in0.0 mm 0.00 in0.0 mm
12:20 AM 56.7°F13.7°C 43.1°F6.2°C 60% 2.5 mph SE4.0 kmh SE 5.0 mph8.0 kmh 30.05 in1017.6 mb 0.00 in0.0 mm 0.00 in0.0 mm 0.00 in0.0 mm
12:25 AM 56.6°F13.7°C 43.0°F6.1°C 60% 1.9 mph SE3.1 kmh SE 4.0 mph6.4 kmh 30.05 in1017.6 mb 0.00 in0.0 mm 0.00 in0.0 mm 0.00 in0.0 mm
12:30 AM 56.5°F13.6°C 42.9°F6.1°C 60% 1.0 mph SW1.6 kmh SW 5.0 mph8.0 kmh 30.05 in1017.6 mb 0.00 in0.0 mm 0.00 in0.0 mm 0.00 in0.0 mm
12:35 AM 56.4°F13.6°C 43.2°F6.2°C 61% 1.0 mph S1.6 kmh S 5.0 mph8.0 kmh 30.05 in1017.6 mb 0.00 in0.0 mm 0.00 in0.0 mm 0.00 in0.0 mm
12:40 AM 56.2°F13.4°C 43.0°F6.1°C 61% 1.0 mph SE1.6 kmh SE 7.0 mph11.3 kmh 30.04 in1017.3 mb 0.00 in0.0 mm 0.00 in0.0 mm 0.00 in0.0 mm
12:45 AM 56.2°F13.4°C 43.0°F6.1°C 61% 1.2 mph S1.9 kmh S 7.0 mph11.3 kmh 30.04 in1017.3 mb 0.00 in0.0 mm 0.00 in0.0 mm 0.00 in0.0 mm
12:50 AM 56.1°F13.4°C 42.8°F6.0°C 61% 2.2 mph SE3.5 kmh SE 7.0 mph11.3 kmh 30.04 in1017.3 mb 0.00 in0.0 mm 0.00 in0.0 mm 0.00 in0.0 mm
12:55 AM 56.0°F13.3°C 42.7°F5.9°C 61% Calm Calm 3.0 mph4.8 kmh 30.04 in1017.3 mb 0.00 in0.0 mm 0.00 in0.0 mm 0.00 in0.0 mm
01:00 AM 55.8°F13.2°C 42.5°F5.8°C 61% 1.2 mph SE1.9 kmh SE 3.0 mph4.8 kmh 30.04 in1017.3 mb 0.00 in0.0 mm 0.00 in0.0 mm 0.00 in0.0 mm
01:05 AM 55.7°F13.2°C 42.5°F5.8°C 61% 1.0 mph SE1.6 kmh SE 4.0 mph6.4 kmh 30.04 in1017.3 mb 0.00 in0.0 mm 0.00 in0.0 mm 0.00 in0.0 mm
01:10 AM 55.6°F13.1°C 42.9°F6.1°C 62% 1.0 mph SE1.6 kmh SE 4.0 mph6.4 kmh 30.04 in1017.3 mb 0.00 in0.0 mm 0.00 in0.0 mm 0.00 in0.0 mm
01:15 AM 55.4°F13.0°C 42.7°F5.9°C 62% 1.0 mph SE1.6 kmh SE 4.0 mph6.4 kmh 30.03 in1016.9 mb 0.00 in0.0 mm 0.00 in0.0 mm 0.00 in0.0 mm
01:20 AM 55.2°F12.9°C 42.5°F5.8°C 62% 1.5 mph SSE2.4 kmh SSE 4.0 mph6.4 kmh 30.03 in1016.9 mb 0.00 in0.0 mm 0.00 in0.0 mm 0.00 in0.0 mm
01:25 AM 55.1°F12.8°C 42.9°F6.1°C 63% 1.3 mph SSE2.1 kmh SSE 3.0 mph4.8 kmh 30.03 in1016.9 mb 0.00 in0.0 mm 0.00 in0.0 mm 0.00 in0.0 mm
01:30 AM 55.1°F12.8°C 42.9°F6.1°C 63% 1.5 mph SE2.4 kmh SE 4.0 mph6.4 kmh 30.02 in1016.6 mb 0.00 in0.0 mm 0.00 in0.0 mm 0.00 in0.0 mm
01:35 AM 55.1°F12.8°C 42.9°F6.1°C 63% 1.3 mph SE2.1 kmh SE 5.0 mph8.0 kmh 30.02 in1016.6 mb 0.00 in0.0 mm 0.00 in0.0 mm 0.00 in0.0 mm
01:40 AM 55.1°F12.8°C 42.9°F6.1°C 63% 1.3 mph SE2.1 kmh SE 5.0 mph8.0 kmh 30.02 in1016.6 mb 0.00 in0.0 mm 0.00 in0.0 mm 0.00 in0.0 mm
01:45 AM 55.1°F12.8°C 42.9°F6.1°C 63% Calm Calm 5.0 mph8.0 kmh 30.02 in1016.6 mb 0.00 in0.0 mm 0.00 in0.0 mm 0.00 in0.0 mm
01:50 AM 55.0°F12.8°C 42.8°F6.0°C 63% 1.0 mph SE1.6 kmh SE 3.0 mph4.8 kmh 30.02 in1016.6 mb 0.00 in0.0 mm 0.00 in0.0 mm 0.00 in0.0 mm
01:55 AM 54.9°F12.7°C 43.1°F6.2°C 64% 1.2 mph S1.9 kmh S 3.0 mph4.8 kmh 30.02 in1016.6 mb 0.00 in0.0 mm 0.00 in0.0 mm 0.00 in0.0 mm
02:00 AM 54.9°F12.7°C 43.1°F6.2°C 64% 1.5 mph SW2.4 kmh SW 3.0 mph4.8 kmh 30.03 in1016.9 mb 0.00 in0.0 mm 0.00 in0.0 mm 0.00 in0.0 mm
02:04 AM 54.8°F12.7°C 43.0°F6.1°C 64% 1.0 mph SW1.6 kmh SW 2.0 mph3.2 kmh 30.02 in1016.6 mb 0.00 in0.0 mm 0.00 in0.0 mm 0.00 in0.0 mm
02:09 AM 54.7°F12.6°C 42.8°F6.0°C 64% 1.0 mph SE1.6 kmh SE 2.0 mph3.2 kmh 30.02 in1016.6 mb 0.00 in0.0 mm 0.00 in0.0 mm 0.00 in0.0 mm
02:14 AM 54.6°F12.6°C 42.7°F5.9°C 64% Calm Calm 2.0 mph3.2 kmh 30.02 in1016.6 mb 0.00 in0.0 mm 0.00 in0.0 mm 0.00 in0.0 mm
02:19 AM 54.5°F12.5°C 43.0°F6.1°C 65% Calm Calm 2.0 mph3.2 kmh 30.02 in1016.6 mb 0.00 in0.0 mm 0.00 in0.0 mm 0.00 in0.0 mm
02:24 AM 54.4°F12.4°C 42.9°F6.1°C 65% Calm Calm 2.0 mph3.2 kmh 30.02 in1016.6 mb 0.00 in0.0 mm 0.00 in0.0 mm 0.00 in0.0 mm
02:29 AM 54.3°F12.4°C 42.8°F6.0°C 65% 1.0 mph SE1.6 kmh SE 3.0 mph4.8 kmh 30.02 in1016.6 mb 0.00 in0.0 mm 0.00 in0.0 mm 0.00 in0.0 mm
02:34 AM 54.2°F12.3°C 42.8°F6.0°C 65% Calm Calm 3.0 mph4.8 kmh 30.02 in1016.6 mb 0.00 in0.0 mm 0.00 in0.0 mm 0.00 in0.0 mm
02:39 AM 54.0°F12.2°C 43.0°F6.1°C 66% Calm Calm 3.0 mph4.8 kmh 30.02 in1016.6 mb 0.00 in0.0 mm 0.00 in0.0 mm 0.00 in0.0 mm
02:44 AM 53.8°F12.1°C 42.8°F6.0°C 66% Calm Calm 3.0 mph4.8 kmh 30.02 in1016.6 mb 0.00 in0.0 mm 0.00 in0.0 mm 0.00 in0.0 mm
02:49 AM 53.7°F12.1°C 43.1°F6.2°C 67% Calm Calm 1.0 mph1.6 kmh 30.02 in1016.6 mb 0.00 in0.0 mm 0.00 in0.0 mm 0.00 in0.0 mm
02:54 AM 53.6°F12.0°C 43.0°F6.1°C 67% 1.4 mph SSW2.3 kmh SSW 2.0 mph3.2 kmh 30.02 in1016.6 mb 0.00 in0.0 mm 0.00 in0.0 mm 0.00 in0.0 mm
02:59 AM 53.5°F11.9°C 42.9°F6.1°C 67% Calm Calm 2.0 mph3.2 kmh 30.02 in1016.6 mb 0.00 in0.0 mm 0.00 in0.0 mm 0.00 in0.0 mm
03:04 AM 53.4°F11.9°C 42.8°F6.0°C 67% Calm Calm 2.0 mph3.2 kmh 30.02 in1016.6 mb 0.00 in0.0 mm 0.00 in0.0 mm 0.00 in0.0 mm
03:09 AM 53.4°F11.9°C 43.2°F6.2°C 68% 1.0 mph SE1.6 kmh SE 2.0 mph3.2 kmh 30.02 in1016.6 mb 0.00 in0.0 mm 0.00 in0.0 mm 0.00 in0.0 mm
03:14 AM 53.4°F11.9°C 43.2°F6.2°C 68% 1.8 mph SE2.9 kmh SE 2.0 mph3.2 kmh 30.02 in1016.6 mb 0.00 in0.0 mm 0.00 in0.0 mm 0.00 in0.0 mm
03:19 AM 53.4°F11.9°C 43.2°F6.2°C 68% 1.0 mph SE1.6 kmh SE 2.0 mph3.2 kmh 30.01 in1016.3 mb 0.00 in0.0 mm 0.00 in0.0 mm 0.00 in0.0 mm
03:24 AM 53.3°F11.8°C 43.1°F6.2°C 68% 1.6 mph SE2.6 kmh SE 4.0 mph6.4 kmh 30.01 in1016.3 mb 0.00 in0.0 mm 0.00 in0.0 mm 0.00 in0.0 mm
03:29 AM 53.4°F11.9°C 43.1°F6.2°C 68% 1.6 mph SE2.6 kmh SE 5.0 mph8.0 kmh 30.00 in1015.9 mb 0.00 in0.0 mm 0.00 in0.0 mm 0.00 in0.0 mm
03:34 AM 53.5°F11.9°C 43.2°F6.2°C 68% 2.6 mph SE4.2 kmh SE 6.0 mph9.7 kmh 30.01 in1016.3 mb 0.00 in0.0 mm 0.00 in0.0 mm 0.00 in0.0 mm
03:39 AM 53.6°F12.0°C 43.3°F6.3°C 68% 1.7 mph SE2.7 kmh SE 6.0 mph9.7 kmh 30.01 in1016.3 mb 0.00 in0.0 mm 0.00 in0.0 mm 0.00 in0.0 mm
03:44 AM 53.7°F12.1°C 43.5°F6.4°C 68% 2.1 mph S3.4 kmh S 6.0 mph9.7 kmh 30.01 in1016.3 mb 0.00 in0.0 mm 0.00 in0.0 mm 0.00 in0.0 mm
03:49 AM 53.7°F12.1°C 43.5°F6.4°C 68% 1.3 mph SSE2.1 kmh SSE 6.0 mph9.7 kmh 30.01 in1016.3 mb 0.00 in0.0 mm 0.00 in0.0 mm 0.00 in0.0 mm
03:54 AM 53.8°F12.1°C 43.6°F6.4°C 68% 1.9 mph SSE3.1 kmh SSE 5.0 mph8.0 kmh 30.01 in1016.3 mb 0.00 in0.0 mm 0.00 in0.0 mm 0.00 in0.0 mm
03:59 AM 54.0°F12.2°C 43.8°F6.6°C 68% 1.0 mph S1.6 kmh S 5.0 mph8.0 kmh 30.00 in1015.9 mb 0.00 in0.0 mm 0.00 in0.0 mm 0.00 in0.0 mm
04:04 AM 54.1°F12.3°C 43.9°F6.6°C 68% 1.6 mph S2.6 kmh S 3.0 mph4.8 kmh 30.00 in1015.9 mb 0.00 in0.0 mm 0.00 in0.0 mm 0.00 in0.0 mm
04:09 AM 54.2°F12.3°C 44.4°F6.9°C 69% 1.2 mph SSE1.9 kmh SSE 4.0 mph6.4 kmh 30.01 in1016.3 mb 0.00 in0.0 mm 0.00 in0.0 mm 0.00 in0.0 mm
04:14 AM 54.1°F12.3°C 45.0°F7.2°C 71% 1.8 mph S2.9 kmh S 4.0 mph6.4 kmh 30.00 in1015.9 mb 0.00 in0.0 mm 0.00 in0.0 mm 0.00 in0.0 mm
04:19 AM 53.8°F12.1°C 45.1°F7.3°C 72% 2.5 mph SE4.0 kmh SE 4.0 mph6.4 kmh 30.00 in1015.9 mb 0.00 in0.0 mm 0.00 in0.0 mm 0.00 in0.0 mm
04:24 AM 53.6°F12.0°C 45.6°F7.6°C 74% 1.6 mph SE2.6 kmh SE 5.0 mph8.0 kmh 29.99 in1015.6 mb 0.00 in0.0 mm 0.00 in0.0 mm 0.00 in0.0 mm
04:29 AM 53.4°F11.9°C 45.4°F7.4°C 74% 1.7 mph SE2.7 kmh SE 5.0 mph8.0 kmh 29.99 in1015.6 mb 0.00 in0.0 mm 0.00 in0.0 mm 0.00 in0.0 mm
04:34 AM 53.3°F11.8°C 45.7°F7.6°C 75% 1.2 mph SE1.9 kmh SE 5.0 mph8.0 kmh 29.99 in1015.6 mb 0.00 in0.0 mm 0.00 in0.0 mm 0.00 in0.0 mm
04:39 AM 53.2°F11.8°C 45.9°F7.7°C 76% 1.0 mph SSE1.6 kmh SSE 5.0 mph8.0 kmh 29.98 in1015.2 mb 0.00 in0.0 mm 0.00 in0.0 mm 0.00 in0.0 mm
04:44 AM 53.3°F11.8°C 46.0°F7.8°C 76% 1.6 mph SE2.6 kmh SE 5.0 mph8.0 kmh 29.98 in1015.2 mb 0.00 in0.0 mm 0.00 in0.0 mm 0.00 in0.0 mm
04:49 AM 53.3°F11.8°C 45.9°F7.7°C 76% 1.0 mph SE1.6 kmh SE 2.0 mph3.2 kmh 29.98 in1015.2 mb 0.00 in0.0 mm 0.00 in0.0 mm 0.00 in0.0 mm
04:54 AM 53.4°F11.9°C 46.0°F7.8°C 76% 1.3 mph SE2.1 kmh SE 3.0 mph4.8 kmh 29.97 in1014.9 mb 0.00 in0.0 mm 0.00 in0.0 mm 0.00 in0.0 mm
04:59 AM 53.5°F11.9°C 46.5°F8.1°C 77% 1.5 mph SE2.4 kmh SE 3.0 mph4.8 kmh 29.97 in1014.9 mb 0.00 in0.0 mm 0.00 in0.0 mm 0.00 in0.0 mm
05:04 AM 53.4°F11.9°C 46.4°F8.0°C 77% 1.8 mph SE2.9 kmh SE 5.0 mph8.0 kmh 29.97 in1014.9 mb 0.00 in0.0 mm 0.00 in0.0 mm 0.00 in0.0 mm
05:09 AM 53.4°F11.9°C 46.8°F8.2°C 78% 1.6 mph SE2.6 kmh SE 5.0 mph8.0 kmh 29.97 in1014.9 mb 0.00 in0.0 mm 0.00 in0.0 mm 0.00 in0.0 mm
05:14 AM 53.4°F11.9°C 47.1°F8.4°C 79% 3.0 mph SE4.8 kmh SE 7.0 mph11.3 kmh 29.97 in1014.9 mb 0.00 in0.0 mm 0.00 in0.0 mm 0.00 in0.0 mm
05:19 AM 53.5°F11.9°C 47.2°F8.4°C 79% 2.3 mph SE3.7 kmh SE 7.0 mph11.3 kmh 29.96 in1014.6 mb 0.00 in0.0 mm 0.00 in0.0 mm 0.00 in0.0 mm
05:24 AM 53.6°F12.0°C 47.6°F8.7°C 80% 3.2 mph SE5.1 kmh SE 7.0 mph11.3 kmh 29.96 in1014.6 mb 0.00 in0.0 mm 0.00 in0.0 mm 0.00 in0.0 mm
05:29 AM 53.7°F12.1°C 47.7°F8.7°C 80% 2.4 mph SE3.9 kmh SE 7.0 mph11.3 kmh 29.96 in1014.6 mb 0.00 in0.0 mm 0.00 in0.0 mm 0.00 in0.0 mm
05:34 AM 53.7°F12.1°C 48.0°F8.9°C 81% 3.5 mph SE5.6 kmh SE 8.0 mph12.9 kmh 29.96 in1014.6 mb 0.00 in0.0 mm 0.00 in0.0 mm 0.00 in0.0 mm
05:39 AM 53.9°F12.2°C 48.2°F9.0°C 81% 3.9 mph SE6.3 kmh SE 10.0 mph16.1 kmh 29.96 in1014.6 mb 0.00 in0.0 mm 0.00 in0.0 mm 0.00 in0.0 mm
05:44 AM 53.9°F12.2°C 48.2°F9.0°C 81% 2.2 mph SE3.5 kmh SE 10.0 mph16.1 kmh 29.95 in1014.2 mb 0.00 in0.0 mm 0.00 in0.0 mm 0.00 in0.0 mm
05:49 AM 53.8°F12.1°C 48.5°F9.2°C 82% 1.8 mph SE2.9 kmh SE 10.0 mph16.1 kmh 29.95 in1014.2 mb 0.00 in0.0 mm 0.00 in0.0 mm 0.00 in0.0 mm
05:54 AM 53.6°F12.0°C 48.9°F9.4°C 84% 4.3 mph SE6.9 kmh SE 11.0 mph17.7 kmh 29.95 in1014.2 mb 0.00 in0.0 mm 0.00 in0.0 mm 0.00 in0.0 mm
05:59 AM 53.3°F11.8°C 48.9°F9.4°C 85% 3.0 mph SE4.8 kmh SE 11.0 mph17.7 kmh 29.94 in1013.9 mb 0.00 in0.0 mm 0.00 in0.0 mm 0.00 in0.0 mm
06:04 AM 53.2°F11.8°C 49.4°F9.7°C 87% 4.5 mph SE7.2 kmh SE 11.0 mph17.7 kmh 29.95 in1014.2 mb 0.00 in0.0 mm 0.00 in0.0 mm 0.00 in0.0 mm
06:09 AM 53.0°F11.7°C 49.5°F9.7°C 88% 2.7 mph SE4.3 kmh SE 11.0 mph17.7 kmh 29.95 in1014.2 mb 0.00 in0.0 mm 0.00 in0.0 mm 0.00 in0.0 mm
06:14 AM 53.0°F11.7°C 49.8°F9.9°C 89% 2.5 mph SE4.0 kmh SE 11.0 mph17.7 kmh 29.94 in1013.9 mb 0.01 in0.3 mm 0.12 in3.0 mm 0.01 in0.3 mm
06:19 AM 53.0°F11.7°C 50.1°F10.1°C 90% 2.7 mph SE4.3 kmh SE 11.0 mph17.7 kmh 29.95 in1014.2 mb 0.01 in0.3 mm 0.00 in0.0 mm 0.01 in0.3 mm
06:24 AM 53.1°F11.7°C 50.5°F10.3°C 91% 2.7 mph SE4.3 kmh SE 11.0 mph17.7 kmh 29.95 in1014.2 mb 0.01 in0.3 mm 0.00 in0.0 mm 0.01 in0.3 mm
06:29 AM 53.1°F11.7°C 50.5°F10.3°C 91% 2.9 mph SSE4.7 kmh SSE 11.0 mph17.7 kmh 29.96 in1014.6 mb 0.01 in0.3 mm 0.00 in0.0 mm 0.01 in0.3 mm
06:34 AM 53.1°F11.7°C 50.5°F10.3°C 91% 3.3 mph SE5.3 kmh SE 11.0 mph17.7 kmh 29.95 in1014.2 mb 0.01 in0.3 mm 0.00 in0.0 mm 0.01 in0.3 mm
06:39 AM 53.1°F11.7°C 50.8°F10.4°C 92% 2.2 mph SE3.5 kmh SE 11.0 mph17.7 kmh 29.95 in1014.2 mb 0.01 in0.3 mm 0.00 in0.0 mm 0.01 in0.3 mm
06:44 AM 53.1°F11.7°C 50.8°F10.4°C 92% 3.5 mph SSE5.6 kmh SSE 11.0 mph17.7 kmh 29.96 in1014.6 mb 0.01 in0.3 mm 0.00 in0.0 mm 0.01 in0.3 mm
06:49 AM 53.1°F11.7°C 50.8°F10.4°C 92% 2.5 mph S4.0 kmh S 11.0 mph17.7 kmh 29.96 in1014.6 mb 0.01 in0.3 mm 0.00 in0.0 mm 0.01 in0.3 mm
06:54 AM 53.1°F11.7°C 50.8°F10.4°C 92% 1.6 mph SSE2.6 kmh SSE 8.0 mph12.9 kmh 29.95 in1014.2 mb 0.01 in0.3 mm 0.00 in0.0 mm 0.01 in0.3 mm
06:59 AM 53.0°F11.7°C 50.7°F10.4°C 92% 2.0 mph SE3.2 kmh SE 8.0 mph12.9 kmh 29.95 in1014.2 mb 0.01 in0.3 mm 0.00 in0.0 mm 0.01 in0.3 mm
07:04 AM 53.0°F11.7°C 51.0°F10.6°C 93% 1.4 mph SSE2.3 kmh SSE 7.0 mph11.3 kmh 29.95 in1014.2 mb 0.01 in0.3 mm 0.00 in0.0 mm 0.01 in0.3 mm
07:09 AM 53.0°F11.7°C 51.0°F10.6°C 93% 1.7 mph SE2.7 kmh SE 7.0 mph11.3 kmh 29.95 in1014.2 mb 0.01 in0.3 mm 0.00 in0.0 mm 0.01 in0.3 mm
07:14 AM 53.0°F11.7°C 51.0°F10.6°C 93% 2.5 mph ESE4.0 kmh ESE 7.0 mph11.3 kmh 29.94 in1013.9 mb 0.01 in0.3 mm 0.00 in0.0 mm 0.02 in0.5 mm
07:19 AM 53.0°F11.7°C 51.3°F10.7°C 94% 1.7 mph ESE2.7 kmh ESE 7.0 mph11.3 kmh 29.93 in1013.5 mb 0.01 in0.3 mm 0.00 in0.0 mm 0.02 in0.5 mm
07:24 AM 53.0°F11.7°C 51.3°F10.7°C 94% 1.6 mph ESE2.6 kmh ESE 6.0 mph9.7 kmh 29.94 in1013.9 mb 0.01 in0.3 mm 0.00 in0.0 mm 0.02 in0.5 mm
07:29 AM 53.1°F11.7°C 51.7°F10.9°C 95% 1.4 mph SE2.3 kmh SE 6.0 mph9.7 kmh 29.94 in1013.9 mb 0.01 in0.3 mm 0.00 in0.0 mm 0.02 in0.5 mm
07:34 AM 53.2°F11.8°C 51.8°F11.0°C 95% 1.5 mph E2.4 kmh E 3.0 mph4.8 kmh 29.94 in1013.9 mb 0.01 in0.3 mm 0.00 in0.0 mm 0.02 in0.5 mm
07:39 AM 53.3°F11.8°C 51.9°F11.1°C 95% 1.4 mph E2.3 kmh E 3.0 mph4.8 kmh 29.93 in1013.5 mb 0.01 in0.3 mm 0.00 in0.0 mm 0.02 in0.5 mm
07:44 AM 53.3°F11.8°C 51.9°F11.1°C 95% 2.2 mph E3.5 kmh E 6.0 mph9.7 kmh 29.93 in1013.5 mb 0.01 in0.3 mm 0.00 in0.0 mm 0.02 in0.5 mm
07:49 AM 53.1°F11.7°C 51.7°F10.9°C 95% 1.6 mph E2.6 kmh E 6.0 mph9.7 kmh 29.93 in1013.5 mb 0.01 in0.3 mm 0.00 in0.0 mm 0.02 in0.5 mm
07:54 AM 53.1°F11.7°C 51.7°F10.9°C 95% 2.0 mph ESE3.2 kmh ESE 6.0 mph9.7 kmh 29.94 in1013.9 mb 0.01 in0.3 mm 0.00 in0.0 mm 0.02 in0.5 mm
07:59 AM 53.2°F11.8°C 52.1°F11.2°C 96% 1.3 mph ESE2.1 kmh ESE 6.0 mph9.7 kmh 29.94 in1013.9 mb 0.02 in0.5 mm 0.12 in3.0 mm 0.03 in0.8 mm
08:03 AM 53.3°F11.8°C 52.2°F11.2°C 96% Calm Calm 4.0 mph6.4 kmh 29.95 in1014.2 mb 0.02 in0.5 mm 0.00 in0.0 mm 0.03 in0.8 mm
08:08 AM 53.4°F11.9°C 52.3°F11.3°C 96% Calm Calm 4.0 mph6.4 kmh 29.97 in1014.9 mb 0.02 in0.5 mm 0.00 in0.0 mm 0.03 in0.8 mm
08:13 AM 53.5°F11.9°C 52.4°F11.3°C 96% 1.0 mph SW1.6 kmh SW 4.0 mph6.4 kmh 29.98 in1015.2 mb 0.03 in0.8 mm 0.12 in3.0 mm 0.05 in1.3 mm
08:18 AM 53.6°F12.0°C 52.5°F11.4°C 96% 1.0 mph W1.6 kmh W 1.0 mph1.6 kmh 29.98 in1015.2 mb 0.06 in1.5 mm 0.36 in9.1 mm 0.08 in2.0 mm
08:23 AM 53.7°F12.1°C 52.6°F11.4°C 96% Calm Calm 1.0 mph1.6 kmh 29.98 in1015.2 mb 0.10 in2.5 mm 0.48 in12.2 mm 0.12 in3.0 mm
08:28 AM 53.7°F12.1°C 52.6°F11.4°C 96% 1.4 mph ESE2.3 kmh ESE 2.0 mph3.2 kmh 29.97 in1014.9 mb 0.16 in4.1 mm 0.72 in18.3 mm 0.18 in4.6 mm
08:33 AM 53.7°F12.1°C 52.6°F11.4°C 96% 2.1 mph E3.4 kmh E 4.0 mph6.4 kmh 29.96 in1014.6 mb 0.22 in5.6 mm 0.72 in18.3 mm 0.24 in6.1 mm
08:38 AM 53.8°F12.1°C 52.7°F11.5°C 96% 4.0 mph ESE6.4 kmh ESE 7.0 mph11.3 kmh 29.94 in1013.9 mb 0.32 in8.1 mm 1.20 in30.5 mm 0.35 in8.9 mm
08:43 AM 54.0°F12.2°C 53.1°F11.7°C 97% 2.5 mph SE4.0 kmh SE 10.0 mph16.1 kmh 29.93 in1013.5 mb 0.35 in8.9 mm 0.36 in9.1 mm 0.37 in9.4 mm
08:48 AM 54.1°F12.3°C 53.2°F11.8°C 97% 3.6 mph SE5.8 kmh SE 10.0 mph16.1 kmh 29.94 in1013.9 mb 0.37 in9.4 mm 0.24 in6.1 mm 0.39 in9.9 mm
08:53 AM 54.2°F12.3°C 53.3°F11.8°C 97% 3.4 mph SE5.5 kmh SE 10.0 mph16.1 kmh 29.93 in1013.5 mb 0.38 in9.7 mm 0.12 in3.0 mm 0.40 in10.2 mm
08:58 AM 54.4°F12.4°C 53.5°F11.9°C 97% 2.8 mph ESE4.5 kmh ESE 10.0 mph16.1 kmh 29.93 in1013.5 mb 0.38 in9.7 mm 0.00 in0.0 mm 0.41 in10.4 mm
09:03 AM 54.6°F12.6°C 53.7°F12.1°C 97% 3.0 mph E4.8 kmh E 10.0 mph16.1 kmh 29.93 in1013.5 mb 0.40 in10.2 mm 0.02 in0.5 mm 0.43 in10.9 mm
09:08 AM 54.7°F12.6°C 53.8°F12.1°C 97% 1.0 mph ENE1.6 kmh ENE 10.0 mph16.1 kmh 29.94 in1013.9 mb 0.42 in10.7 mm 0.24 in6.1 mm 0.45 in11.4 mm
09:13 AM 54.9°F12.7°C 54.0°F12.2°C 97% 1.2 mph ENE1.9 kmh ENE 10.0 mph16.1 kmh 29.94 in1013.9 mb 0.41 in10.4 mm 0.00 in0.0 mm 0.46 in11.7 mm
09:18 AM 55.0°F12.8°C 54.1°F12.3°C 97% 1.0 mph SE1.6 kmh SE 10.0 mph16.1 kmh 29.94 in1013.9 mb 0.39 in9.9 mm 0.00 in0.0 mm 0.47 in11.9 mm
09:23 AM 55.1°F12.8°C 54.2°F12.3°C 97% 2.8 mph E4.5 kmh E 10.0 mph16.1 kmh 29.94 in1013.9 mb 0.35 in8.9 mm 0.00 in0.0 mm 0.47 in11.9 mm
09:28 AM 55.2°F12.9°C 54.3°F12.4°C 97% 2.0 mph E3.2 kmh E 10.0 mph16.1 kmh 29.94 in1013.9 mb 0.29 in7.4 mm 0.00 in0.0 mm 0.47 in11.9 mm
09:33 AM 55.3°F12.9°C 54.4°F12.4°C 97% 1.5 mph ESE2.4 kmh ESE 7.0 mph11.3 kmh 29.94 in1013.9 mb 0.23 in5.8 mm 0.00 in0.0 mm 0.47 in11.9 mm
09:38 AM 55.4°F13.0°C 54.5°F12.5°C 97% 3.7 mph ESE6.0 kmh ESE 7.0 mph11.3 kmh 29.95 in1014.2 mb 0.12 in3.0 mm 0.00 in0.0 mm 0.47 in11.9 mm
09:43 AM 55.5°F13.1°C 54.6°F12.6°C 97% 1.1 mph ENE1.8 kmh ENE 6.0 mph9.7 kmh 29.95 in1014.2 mb 0.10 in2.5 mm 0.00 in0.0 mm 0.47 in11.9 mm
09:48 AM 55.6°F13.1°C 54.7°F12.6°C 97% 2.2 mph E3.5 kmh E 6.0 mph9.7 kmh 29.94 in1013.9 mb 0.08 in2.0 mm 0.00 in0.0 mm 0.47 in11.9 mm
09:53 AM 55.6°F13.1°C 54.7°F12.6°C 97% 1.9 mph E3.1 kmh E 6.0 mph9.7 kmh 29.94 in1013.9 mb 0.08 in2.0 mm 0.00 in0.0 mm 0.48 in12.2 mm
09:58 AM 55.6°F13.1°C 54.7°F12.6°C 97% 3.0 mph ENE4.8 kmh ENE 6.0 mph9.7 kmh 29.94 in1013.9 mb 0.07 in1.8 mm 0.00 in0.0 mm 0.48 in12.2 mm
10:03 AM 55.5°F13.1°C 54.6°F12.6°C 97% 2.8 mph E4.5 kmh E 7.0 mph11.3 kmh 29.93 in1013.5 mb 0.05 in1.3 mm 0.00 in0.0 mm 0.48 in12.2 mm
10:08 AM 55.5°F13.1°C 54.6°F12.6°C 97% 3.7 mph E6.0 kmh E 7.0 mph11.3 kmh 29.93 in1013.5 mb 0.03 in0.8 mm 0.00 in0.0 mm 0.48 in12.2 mm
10:13 AM 55.5°F13.1°C 54.6°F12.6°C 97% 3.9 mph E6.3 kmh E 7.0 mph11.3 kmh 29.92 in1013.2 mb 0.03 in0.8 mm 0.00 in0.0 mm 0.49 in12.4 mm
10:18 AM 55.4°F13.0°C 54.5°F12.5°C 97% 3.6 mph E5.8 kmh E 7.0 mph11.3 kmh 29.93 in1013.5 mb 0.03 in0.8 mm 0.00 in0.0 mm 0.50 in12.7 mm
10:23 AM 55.4°F13.0°C 54.5°F12.5°C 97% 2.9 mph ENE4.7 kmh ENE 7.0 mph11.3 kmh 29.92 in1013.2 mb 0.03 in0.8 mm 0.00 in0.0 mm 0.50 in12.7 mm
10:28 AM 55.5°F13.1°C 54.6°F12.6°C 97% 4.0 mph ENE6.4 kmh ENE 7.0 mph11.3 kmh 29.93 in1013.5 mb 0.05 in1.3 mm 0.24 in6.1 mm 0.52 in13.2 mm
10:33 AM 55.5°F13.1°C 54.6°F12.6°C 97% 2.3 mph E3.7 kmh E 7.0 mph11.3 kmh 29.93 in1013.5 mb 0.07 in1.8 mm 0.24 in6.1 mm 0.54 in13.7 mm
10:38 AM 55.5°F13.1°C 54.6°F12.6°C 97% 1.4 mph E2.3 kmh E 7.0 mph11.3 kmh 29.93 in1013.5 mb 0.09 in2.3 mm 0.24 in6.1 mm 0.56 in14.2 mm
10:43 AM 55.6°F13.1°C 54.7°F12.6°C 97% 1.9 mph E3.1 kmh E 7.0 mph11.3 kmh 29.92 in1013.2 mb 0.11 in2.8 mm 0.24 in6.1 mm 0.58 in14.7 mm
10:48 AM 55.6°F13.1°C 54.7°F12.6°C 97% 1.2 mph E1.9 kmh E 7.0 mph11.3 kmh 29.92 in1013.2 mb 0.12 in3.0 mm 0.12 in3.0 mm 0.59 in15.0 mm
10:53 AM 55.7°F13.2°C 54.8°F12.7°C 97% 1.1 mph ESE1.8 kmh ESE 6.0 mph9.7 kmh 29.92 in1013.2 mb 0.12 in3.0 mm 0.00 in0.0 mm 0.60 in15.2 mm
10:58 AM 55.8°F13.2°C 54.9°F12.7°C 97% 3.3 mph SE5.3 kmh SE 6.0 mph9.7 kmh 29.92 in1013.2 mb 0.13 in3.3 mm 0.12 in3.0 mm 0.61 in15.5 mm
11:03 AM 56.1°F13.4°C 55.5°F13.1°C 98% 5.4 mph ESE8.7 kmh ESE 14.0 mph22.5 kmh 29.91 in1012.9 mb 0.17 in4.3 mm 0.04 in1.0 mm 0.65 in16.5 mm
11:08 AM 56.4°F13.6°C 55.8°F13.2°C 98% 2.8 mph SE4.5 kmh SE 14.0 mph22.5 kmh 29.91 in1012.9 mb 0.20 in5.1 mm 0.36 in9.1 mm 0.68 in17.3 mm
11:13 AM 56.5°F13.6°C 55.9°F13.3°C 98% 4.9 mph ESE7.9 kmh ESE 14.0 mph22.5 kmh 29.90 in1012.5 mb 0.22 in5.6 mm 0.24 in6.1 mm 0.71 in18.0 mm
11:18 AM 56.6°F13.7°C 56.0°F13.3°C 98% 3.2 mph ESE5.1 kmh ESE 14.0 mph22.5 kmh 29.89 in1012.2 mb 0.25 in6.4 mm 0.36 in9.1 mm 0.75 in19.1 mm
11:23 AM 56.7°F13.7°C 56.1°F13.4°C 98% 5.2 mph ESE8.4 kmh ESE 12.0 mph19.3 kmh 29.88 in1011.9 mb 0.26 in6.6 mm 0.12 in3.0 mm 0.76 in19.3 mm
11:28 AM 56.8°F13.8°C 56.2°F13.4°C 98% 2.6 mph SE4.2 kmh SE 12.0 mph19.3 kmh 29.87 in1011.5 mb 0.25 in6.4 mm 0.00 in0.0 mm 0.77 in19.6 mm
11:33 AM 57.0°F13.9°C 56.4°F13.6°C 98% 4.6 mph SE7.4 kmh SE 13.0 mph20.9 kmh 29.87 in1011.5 mb 0.23 in5.8 mm 0.00 in0.0 mm 0.77 in19.6 mm
11:38 AM 57.1°F13.9°C 56.5°F13.6°C 98% 2.5 mph ESE4.0 kmh ESE 13.0 mph20.9 kmh 29.87 in1011.5 mb 0.21 in5.3 mm 0.00 in0.0 mm 0.77 in19.6 mm
11:43 AM 57.3°F14.1°C 56.7°F13.7°C 98% 5.7 mph SE9.2 kmh SE 14.0 mph22.5 kmh 29.86 in1011.2 mb 0.19 in4.8 mm 0.00 in0.0 mm 0.77 in19.6 mm
11:48 AM 57.4°F14.1°C 56.8°F13.8°C 98% 4.3 mph ESE6.9 kmh ESE 14.0 mph22.5 kmh 29.85 in1010.8 mb 0.18 in4.6 mm 0.00 in0.0 mm 0.77 in19.6 mm
11:53 AM 57.5°F14.2°C 56.9°F13.8°C 98% 3.3 mph SE5.3 kmh SE 14.0 mph22.5 kmh 29.85 in1010.8 mb 0.18 in4.6 mm 0.00 in0.0 mm 0.78 in19.8 mm
11:58 AM 57.5°F14.2°C 56.7°F13.7°C 97% 4.7 mph SE7.6 kmh SE 14.0 mph22.5 kmh 29.85 in1010.8 mb 0.17 in4.3 mm 0.00 in0.0 mm 0.78 in19.8 mm
12:03 PM 57.6°F14.2°C 56.8°F13.8°C 97% 3.3 mph SE5.3 kmh SE 13.0 mph20.9 kmh 29.85 in1010.8 mb 0.13 in3.3 mm 0.00 in0.0 mm 0.78 in19.8 mm
12:08 PM 57.6°F14.2°C 56.8°F13.8°C 97% 5.6 mph SE9.0 kmh SE 13.0 mph20.9 kmh 29.84 in1010.5 mb 0.11 in2.8 mm 0.00 in0.0 mm 0.79 in20.1 mm
12:13 PM 57.7°F14.3°C 56.9°F13.8°C 97% 3.6 mph SE5.8 kmh SE 14.0 mph22.5 kmh 29.84 in1010.5 mb 0.08 in2.0 mm 0.00 in0.0 mm 0.79 in20.1 mm
12:18 PM 57.8°F14.3°C 57.0°F13.9°C 97% 2.5 mph SE4.0 kmh SE 14.0 mph22.5 kmh 29.84 in1010.5 mb 0.05 in1.3 mm 0.00 in0.0 mm 0.80 in20.3 mm
12:23 PM 57.9°F14.4°C 57.1°F13.9°C 97% 4.2 mph SE6.8 kmh SE 14.0 mph22.5 kmh 29.83 in1010.2 mb 0.06 in1.5 mm 0.12 in3.0 mm 0.82 in20.8 mm
12:28 PM 58.0°F14.4°C 57.2°F14.0°C 97% 3.0 mph SE4.8 kmh SE 14.0 mph22.5 kmh 29.83 in1010.2 mb 0.06 in1.5 mm 0.00 in0.0 mm 0.83 in21.1 mm
12:33 PM 58.0°F14.4°C 57.2°F14.0°C 97% 2.2 mph SE3.5 kmh SE 12.0 mph19.3 kmh 29.82 in1009.8 mb 0.07 in1.8 mm 0.12 in3.0 mm 0.84 in21.3 mm
12:38 PM 58.2°F14.6°C 57.4°F14.1°C 97% 3.7 mph SE6.0 kmh SE 12.0 mph19.3 kmh 29.82 in1009.8 mb 0.07 in1.8 mm 0.00 in0.0 mm 0.84 in21.3 mm
12:43 PM 58.3°F14.6°C 57.5°F14.2°C 97% 3.2 mph SE5.1 kmh SE 10.0 mph16.1 kmh 29.81 in1009.5 mb 0.08 in2.0 mm 0.12 in3.0 mm 0.85 in21.6 mm
12:48 PM 58.5°F14.7°C 57.7°F14.3°C 97% 3.2 mph SE5.1 kmh SE 10.0 mph16.1 kmh 29.81 in1009.5 mb 0.08 in2.0 mm 0.00 in0.0 mm 0.85 in21.6 mm
12:53 PM 58.6°F14.8°C 57.8°F14.3°C 97% 3.4 mph SE5.5 kmh SE 9.0 mph14.5 kmh 29.81 in1009.5 mb 0.08 in2.0 mm 0.00 in0.0 mm 0.86 in21.8 mm
12:58 PM 58.8°F14.9°C 57.9°F14.4°C 97% 3.9 mph SE6.3 kmh SE 16.0 mph25.7 kmh 29.80 in1009.1 mb 0.08 in2.0 mm 0.00 in0.0 mm 0.86 in21.8 mm
01:03 PM 58.9°F14.9°C 58.1°F14.5°C 97% 4.3 mph SE6.9 kmh SE 16.0 mph25.7 kmh 29.80 in1009.1 mb 0.08 in2.0 mm 0.00 in0.0 mm 0.86 in21.8 mm
01:08 PM 59.0°F15.0°C 58.2°F14.6°C 97% 3.2 mph SE5.1 kmh SE 16.0 mph25.7 kmh 29.80 in1009.1 mb 0.07 in1.8 mm 0.00 in0.0 mm 0.86 in21.8 mm
01:13 PM 59.1°F15.1°C 58.2°F14.6°C 97% 2.9 mph SE4.7 kmh SE 16.0 mph25.7 kmh 29.79 in1008.8 mb 0.07 in1.8 mm 0.00 in0.0 mm 0.86 in21.8 mm
01:18 PM 59.2°F15.1°C 58.3°F14.6°C 97% 2.6 mph SE4.2 kmh SE 10.0 mph16.1 kmh 29.79 in1008.8 mb 0.06 in1.5 mm 0.00 in0.0 mm 0.86 in21.8 mm
01:23 PM 59.3°F15.2°C 58.4°F14.7°C 97% 3.4 mph SE5.5 kmh SE 10.0 mph16.1 kmh 29.79 in1008.8 mb 0.04 in1.0 mm 0.00 in0.0 mm 0.86 in21.8 mm
01:28 PM 59.4°F15.2°C 58.5°F14.7°C 97% 3.5 mph SSE5.6 kmh SSE 11.0 mph17.7 kmh 29.78 in1008.5 mb 0.03 in0.8 mm 0.00 in0.0 mm 0.86 in21.8 mm
01:33 PM 59.5°F15.3°C 58.6°F14.8°C 97% 4.4 mph SE7.1 kmh SE 11.0 mph17.7 kmh 29.78 in1008.5 mb 0.02 in0.5 mm 0.00 in0.0 mm 0.86 in21.8 mm
01:38 PM 59.6°F15.3°C 58.7°F14.8°C 97% 2.9 mph S4.7 kmh S 11.0 mph17.7 kmh 29.78 in1008.5 mb 0.02 in0.5 mm 0.00 in0.0 mm 0.86 in21.8 mm
01:43 PM 59.7°F15.4°C 58.8°F14.9°C 97% 2.9 mph SSE4.7 kmh SSE 11.0 mph17.7 kmh 29.78 in1008.5 mb 0.03 in0.8 mm 0.12 in3.0 mm 0.88 in22.4 mm
01:48 PM 59.7°F15.4°C 58.8°F14.9°C 97% 1.8 mph SSE2.9 kmh SSE 10.0 mph16.1 kmh 29.78 in1008.5 mb 0.03 in0.8 mm 0.00 in0.0 mm 0.88 in22.4 mm
01:53 PM 59.8°F15.4°C 58.9°F14.9°C 97% 3.8 mph SSE6.1 kmh SSE 11.0 mph17.7 kmh 29.78 in1008.5 mb 0.02 in0.5 mm 0.00 in0.0 mm 0.88 in22.4 mm
01:58 PM 59.9°F15.5°C 59.0°F15.0°C 97% 2.6 mph SSE4.2 kmh SSE 11.0 mph17.7 kmh 29.78 in1008.5 mb 0.03 in0.8 mm 0.12 in3.0 mm 0.89 in22.6 mm
02:02 PM 60.0°F15.6°C 59.1°F15.1°C 97% 2.1 mph SSW3.4 kmh SSW 11.0 mph17.7 kmh 29.78 in1008.5 mb 0.03 in0.8 mm 0.00 in0.0 mm 0.89 in22.6 mm
02:07 PM 60.0°F15.6°C 59.1°F15.1°C 97% 2.2 mph S3.5 kmh S 11.0 mph17.7 kmh 29.77 in1008.1 mb 0.09 in2.3 mm 0.72 in18.3 mm 0.95 in24.1 mm
02:12 PM 60.1°F15.6°C 59.2°F15.1°C 97% 1.3 mph SW2.1 kmh SW 7.0 mph11.3 kmh 29.78 in1008.5 mb 0.10 in2.5 mm 0.12 in3.0 mm 0.96 in24.4 mm
02:17 PM 60.1°F15.6°C 59.5°F15.3°C 98% 2.7 mph SW4.3 kmh SW 6.0 mph9.7 kmh 29.78 in1008.5 mb 0.11 in2.8 mm 0.12 in3.0 mm 0.97 in24.6 mm
02:22 PM 60.2°F15.7°C 59.6°F15.3°C 98% 1.8 mph SSW2.9 kmh SSW 6.0 mph9.7 kmh 29.78 in1008.5 mb 0.12 in3.0 mm 0.12 in3.0 mm 0.98 in24.9 mm
02:27 PM 60.2°F15.7°C 59.6°F15.3°C 98% 1.4 mph WSW2.3 kmh WSW 6.0 mph9.7 kmh 29.78 in1008.5 mb 0.13 in3.3 mm 0.12 in3.0 mm 0.99 in25.1 mm
02:32 PM 60.3°F15.7°C 59.7°F15.4°C 98% 1.2 mph SW1.9 kmh SW 6.0 mph9.7 kmh 29.78 in1008.5 mb 0.14 in3.6 mm 0.12 in3.0 mm 1.00 in25.4 mm
02:37 PM 60.3°F15.7°C 59.7°F15.4°C 98% 1.0 mph SE1.6 kmh SE 4.0 mph6.4 kmh 29.78 in1008.5 mb 0.14 in3.6 mm 0.00 in0.0 mm 1.00 in25.4 mm
02:42 PM 60.4°F15.8°C 59.8°F15.4°C 98% 1.4 mph SW2.3 kmh SW 3.0 mph4.8 kmh 29.78 in1008.5 mb 0.14 in3.6 mm 0.00 in0.0 mm 1.01 in25.7 mm
02:47 PM 60.5°F15.8°C 59.9°F15.5°C 98% 1.0 mph SE1.6 kmh SE 3.0 mph4.8 kmh 29.78 in1008.5 mb 0.13 in3.3 mm 0.00 in0.0 mm 1.01 in25.7 mm
02:52 PM 60.6°F15.9°C 60.0°F15.6°C 98% 1.0 mph SW1.6 kmh SW 3.0 mph4.8 kmh 29.77 in1008.1 mb 0.13 in3.3 mm 0.00 in0.0 mm 1.01 in25.7 mm
02:57 PM 61.0°F16.1°C 60.4°F15.8°C 98% 1.6 mph SSW2.6 kmh SSW 8.0 mph12.9 kmh 29.77 in1008.1 mb 0.12 in3.0 mm 0.00 in0.0 mm 1.01 in25.7 mm
03:02 PM 61.2°F16.2°C 60.6°F15.9°C 98% 1.8 mph SW2.9 kmh SW 8.0 mph12.9 kmh 29.78 in1008.5 mb 0.12 in3.0 mm 0.00 in0.0 mm 1.01 in25.7 mm
03:07 PM 61.5°F16.4°C 60.9°F16.1°C 98% 2.6 mph SW4.2 kmh SW 8.0 mph12.9 kmh 29.78 in1008.5 mb 0.06 in1.5 mm 0.00 in0.0 mm 1.01 in25.7 mm
03:12 PM 61.7°F16.5°C 61.1°F16.2°C 98% 3.2 mph SSW5.1 kmh SSW 8.0 mph12.9 kmh 29.78 in1008.5 mb 0.05 in1.3 mm 0.00 in0.0 mm 1.01 in25.7 mm
03:17 PM 62.0°F16.7°C 61.4°F16.3°C 98% 2.8 mph SSW4.5 kmh SSW 8.0 mph12.9 kmh 29.78 in1008.5 mb 0.04 in1.0 mm 0.00 in0.0 mm 1.01 in25.7 mm
03:22 PM 62.2°F16.8°C 61.6°F16.4°C 98% 2.9 mph S4.7 kmh S 8.0 mph12.9 kmh 29.78 in1008.5 mb 0.03 in0.8 mm 0.00 in0.0 mm 1.01 in25.7 mm
03:27 PM 62.4°F16.9°C 61.8°F16.6°C 98% 2.8 mph S4.5 kmh S 8.0 mph12.9 kmh 29.78 in1008.5 mb 0.02 in0.5 mm 0.00 in0.0 mm 1.01 in25.7 mm
03:32 PM 62.5°F16.9°C 61.9°F16.6°C 98% 3.8 mph SW6.1 kmh SW 9.0 mph14.5 kmh 29.78 in1008.5 mb 0.01 in0.3 mm 0.00 in0.0 mm 1.01 in25.7 mm
03:37 PM 62.6°F17.0°C 62.0°F16.7°C 98% 1.7 mph S2.7 kmh S 9.0 mph14.5 kmh 29.78 in1008.5 mb 0.01 in0.3 mm 0.00 in0.0 mm 1.01 in25.7 mm
03:42 PM 62.7°F17.1°C 62.1°F16.7°C 98% 1.8 mph SW2.9 kmh SW 9.0 mph14.5 kmh 29.78 in1008.5 mb 0.00 in0.0 mm 0.00 in0.0 mm 1.01 in25.7 mm
03:47 PM 62.8°F17.1°C 62.2°F16.8°C 98% 2.5 mph SSW4.0 kmh SSW 9.0 mph14.5 kmh 29.78 in1008.5 mb 0.00 in0.0 mm 0.00 in0.0 mm 1.01 in25.7 mm
03:52 PM 62.9°F17.2°C 62.3°F16.8°C 98% 1.2 mph S1.9 kmh S 7.0 mph11.3 kmh 29.78 in1008.5 mb 0.00 in0.0 mm 0.00 in0.0 mm 1.01 in25.7 mm
03:57 PM 63.0°F17.2°C 62.4°F16.9°C 98% 1.4 mph SSW2.3 kmh SSW 7.0 mph11.3 kmh 29.78 in1008.5 mb 0.00 in0.0 mm 0.00 in0.0 mm 1.01 in25.7 mm
04:02 PM 63.0°F17.2°C 62.4°F16.9°C 98% 1.8 mph SSW2.9 kmh SSW 7.0 mph11.3 kmh 29.78 in1008.5 mb 0.00 in0.0 mm 0.00 in0.0 mm 1.01 in25.7 mm
04:07 PM 63.1°F17.3°C 62.5°F16.9°C 98% 2.3 mph SSE3.7 kmh SSE 7.0 mph11.3 kmh 29.78 in1008.5 mb 0.00 in0.0 mm 0.00 in0.0 mm 1.01 in25.7 mm
04:12 PM 63.2°F17.3°C 62.6°F17.0°C 98% 1.5 mph S2.4 kmh S 6.0 mph9.7 kmh 29.78 in1008.5 mb 0.00 in0.0 mm 0.00 in0.0 mm 1.01 in25.7 mm
04:17 PM 63.2°F17.3°C 62.6°F17.0°C 98% 1.6 mph SSE2.6 kmh SSE 6.0 mph9.7 kmh 29.77 in1008.1 mb 0.00 in0.0 mm 0.00 in0.0 mm 1.01 in25.7 mm
04:22 PM 63.2°F17.3°C 62.6°F17.0°C 98% 1.7 mph SSE2.7 kmh SSE 6.0 mph9.7 kmh 29.77 in1008.1 mb 0.00 in0.0 mm 0.00 in0.0 mm 1.01 in25.7 mm
04:27 PM 63.2°F17.3°C 62.6°F17.0°C 98% 1.5 mph S2.4 kmh S 5.0 mph8.0 kmh 29.77 in1008.1 mb 0.00 in0.0 mm 0.00 in0.0 mm 1.01 in25.7 mm
04:32 PM 63.3°F17.4°C 62.7°F17.1°C 98% 2.0 mph S3.2 kmh S 6.0 mph9.7 kmh 29.78 in1008.5 mb 0.01 in0.3 mm 0.12 in3.0 mm 1.02 in25.9 mm
04:37 PM 63.4°F17.4°C 62.8°F17.1°C 98% 2.2 mph S3.5 kmh S 8.0 mph12.9 kmh 29.78 in1008.5 mb 0.01 in0.3 mm 0.00 in0.0 mm 1.02 in25.9 mm
04:42 PM 63.4°F17.4°C 62.8°F17.1°C 98% 1.0 mph SSW1.6 kmh SSW 8.0 mph12.9 kmh 29.78 in1008.5 mb 0.01 in0.3 mm 0.00 in0.0 mm 1.02 in25.9 mm
04:47 PM 63.4°F17.4°C 62.8°F17.1°C 98% 1.2 mph SW1.9 kmh SW 8.0 mph12.9 kmh 29.78 in1008.5 mb 0.01 in0.3 mm 0.00 in0.0 mm 1.02 in25.9 mm
04:52 PM 63.5°F17.5°C 62.9°F17.2°C 98% 1.4 mph SSE2.3 kmh SSE 8.0 mph12.9 kmh 29.78 in1008.5 mb 0.01 in0.3 mm 0.00 in0.0 mm 1.02 in25.9 mm
04:57 PM 63.6°F17.6°C 63.0°F17.2°C 98% 2.0 mph S3.2 kmh S 6.0 mph9.7 kmh 29.78 in1008.5 mb 0.01 in0.3 mm 0.00 in0.0 mm 1.02 in25.9 mm
05:02 PM 63.6°F17.6°C 63.0°F17.2°C 98% 2.8 mph SSW4.5 kmh SSW 6.0 mph9.7 kmh 29.78 in1008.5 mb 0.01 in0.3 mm 0.00 in0.0 mm 1.02 in25.9 mm
05:07 PM 63.7°F17.6°C 63.1°F17.3°C 98% 1.9 mph S3.1 kmh S 6.0 mph9.7 kmh 29.78 in1008.5 mb 0.02 in0.5 mm 0.12 in3.0 mm 1.03 in26.2 mm
05:12 PM 63.7°F17.6°C 63.1°F17.3°C 98% 1.2 mph SE1.9 kmh SE 6.0 mph9.7 kmh 29.78 in1008.5 mb 0.02 in0.5 mm 0.00 in0.0 mm 1.03 in26.2 mm
05:18 PM 63.8°F17.7°C 63.2°F17.3°C 98% 1.5 mph S2.4 kmh S 5.0 mph8.0 kmh 29.78 in1008.5 mb 0.02 in0.5 mm 0.00 in0.0 mm 1.03 in26.2 mm
05:22 PM 63.8°F17.7°C 63.2°F17.3°C 98% 1.4 mph S2.3 kmh S 5.0 mph8.0 kmh 29.77 in1008.1 mb 0.02 in0.5 mm 0.00 in0.0 mm 1.03 in26.2 mm
05:27 PM 63.9°F17.7°C 63.3°F17.4°C 98% 2.3 mph S3.7 kmh S 7.0 mph11.3 kmh 29.78 in1008.5 mb 0.02 in0.5 mm 0.00 in0.0 mm 1.03 in26.2 mm
05:33 PM 63.9°F17.7°C 63.3°F17.4°C 98% 1.5 mph SW2.4 kmh SW 7.0 mph11.3 kmh 29.78 in1008.5 mb 0.01 in0.3 mm 0.00 in0.0 mm 1.03 in26.2 mm
05:38 PM 64.0°F17.8°C 63.4°F17.4°C 98% 1.5 mph S2.4 kmh S 7.0 mph11.3 kmh 29.78 in1008.5 mb 0.01 in0.3 mm 0.00 in0.0 mm 1.03 in26.2 mm
05:43 PM 64.1°F17.8°C 63.5°F17.5°C 98% 1.3 mph SW2.1 kmh SW 10.0 mph16.1 kmh 29.78 in1008.5 mb 0.01 in0.3 mm 0.00 in0.0 mm 1.03 in26.2 mm
05:48 PM 64.2°F17.9°C 63.6°F17.6°C 98% 1.6 mph SW2.6 kmh SW 10.0 mph16.1 kmh 29.77 in1008.1 mb 0.01 in0.3 mm 0.00 in0.0 mm 1.03 in26.2 mm
05:53 PM 64.2°F17.9°C 63.6°F17.6°C 98% 2.3 mph SSW3.7 kmh SSW 10.0 mph16.1 kmh 29.78 in1008.5 mb 0.01 in0.3 mm 0.00 in0.0 mm 1.03 in26.2 mm
05:58 PM 64.2°F17.9°C 63.6°F17.6°C 98% 1.9 mph SW3.1 kmh SW 8.0 mph12.9 kmh 29.78 in1008.5 mb 0.01 in0.3 mm 0.00 in0.0 mm 1.03 in26.2 mm
06:03 PM 64.3°F17.9°C 63.7°F17.6°C 98% 2.1 mph S3.4 kmh S 8.0 mph12.9 kmh 29.77 in1008.1 mb 0.01 in0.3 mm 0.00 in0.0 mm 1.03 in26.2 mm
06:08 PM 64.4°F18.0°C 63.8°F17.7°C 98% 1.8 mph SW2.9 kmh SW 8.0 mph12.9 kmh 29.77 in1008.1 mb 0.00 in0.0 mm 0.00 in0.0 mm 1.03 in26.2 mm
06:13 PM 64.4°F18.0°C 63.8°F17.7°C 98% 1.4 mph S2.3 kmh S 8.0 mph12.9 kmh 29.77 in1008.1 mb 0.00 in0.0 mm 0.00 in0.0 mm 1.03 in26.2 mm
06:18 PM 64.5°F18.1°C 63.9°F17.7°C 98% 1.7 mph SW2.7 kmh SW 8.0 mph12.9 kmh 29.77 in1008.1 mb 0.00 in0.0 mm 0.00 in0.0 mm 1.03 in26.2 mm
06:23 PM 64.5°F18.1°C 63.9°F17.7°C 98% 2.1 mph S3.4 kmh S 8.0 mph12.9 kmh 29.76 in1007.8 mb 0.00 in0.0 mm 0.00 in0.0 mm 1.03 in26.2 mm
06:28 PM 64.6°F18.1°C 64.0°F17.8°C 98% 1.5 mph SSE2.4 kmh SSE 8.0 mph12.9 kmh 29.76 in1007.8 mb 0.00 in0.0 mm 0.00 in0.0 mm 1.03 in26.2 mm
06:33 PM 64.6°F18.1°C 64.0°F17.8°C 98% 1.3 mph SSE2.1 kmh SSE 8.0 mph12.9 kmh 29.76 in1007.8 mb 0.00 in0.0 mm 0.00 in0.0 mm 1.03 in26.2 mm
06:38 PM 64.6°F18.1°C 64.0°F17.8°C 98% 1.4 mph SSE2.3 kmh SSE 8.0 mph12.9 kmh 29.76 in1007.8 mb 0.00 in0.0 mm 0.00 in0.0 mm 1.03 in26.2 mm
06:43 PM 64.6°F18.1°C 64.0°F17.8°C 98% 1.0 mph SSE1.6 kmh SSE 4.0 mph6.4 kmh 29.76 in1007.8 mb 0.00 in0.0 mm 0.00 in0.0 mm 1.03 in26.2 mm
06:48 PM 64.6°F18.1°C 64.0°F17.8°C 98% 2.1 mph SE3.4 kmh SE 5.0 mph8.0 kmh 29.76 in1007.8 mb 0.00 in0.0 mm 0.00 in0.0 mm 1.03 in26.2 mm
06:53 PM 64.7°F18.2°C 64.1°F17.8°C 98% 2.2 mph SE3.5 kmh SE 5.0 mph8.0 kmh 29.76 in1007.8 mb 0.00 in0.0 mm 0.00 in0.0 mm 1.03 in26.2 mm
06:58 PM 64.7°F18.2°C 64.1°F17.8°C 98% 1.6 mph SSE2.6 kmh SSE 6.0 mph9.7 kmh 29.76 in1007.8 mb 0.00 in0.0 mm 0.00 in0.0 mm 1.03 in26.2 mm
07:03 PM 64.7°F18.2°C 64.1°F17.8°C 98% 2.5 mph SE4.0 kmh SE 6.0 mph9.7 kmh 29.76 in1007.8 mb 0.00 in0.0 mm 0.00 in0.0 mm 1.03 in26.2 mm
07:08 PM 64.7°F18.2°C 64.1°F17.8°C 98% 1.9 mph SE3.1 kmh SE 6.0 mph9.7 kmh 29.76 in1007.8 mb 0.00 in0.0 mm 0.00 in0.0 mm 1.03 in26.2 mm
07:13 PM 64.8°F18.2°C 64.2°F17.9°C 98% 2.2 mph SE3.5 kmh SE 6.0 mph9.7 kmh 29.76 in1007.8 mb 0.00 in0.0 mm 0.00 in0.0 mm 1.03 in26.2 mm
07:18 PM 64.8°F18.2°C 64.2°F17.9°C 98% 1.6 mph SSE2.6 kmh SSE 5.0 mph8.0 kmh 29.76 in1007.8 mb 0.00 in0.0 mm 0.00 in0.0 mm 1.03 in26.2 mm
07:23 PM 64.8°F18.2°C 64.2°F17.9°C 98% 1.5 mph SSW2.4 kmh SSW 5.0 mph8.0 kmh 29.77 in1008.1 mb 0.00 in0.0 mm 0.00 in0.0 mm 1.03 in26.2 mm
07:28 PM 64.8°F18.2°C 64.2°F17.9°C 98% 1.6 mph S2.6 kmh S 5.0 mph8.0 kmh 29.77 in1008.1 mb 0.00 in0.0 mm 0.00 in0.0 mm 1.03 in26.2 mm
07:33 PM 64.8°F18.2°C 64.2°F17.9°C 98% 2.9 mph SE4.7 kmh SE 7.0 mph11.3 kmh 29.77 in1008.1 mb 0.00 in0.0 mm 0.00 in0.0 mm 1.03 in26.2 mm
07:38 PM 64.8°F18.2°C 64.2°F17.9°C 98% 1.3 mph SE2.1 kmh SE 7.0 mph11.3 kmh 29.77 in1008.1 mb 0.00 in0.0 mm 0.00 in0.0 mm 1.03 in26.2 mm
07:43 PM 64.9°F18.3°C 64.3°F17.9°C 98% 2.0 mph SE3.2 kmh SE 7.0 mph11.3 kmh 29.77 in1008.1 mb 0.00 in0.0 mm 0.00 in0.0 mm 1.03 in26.2 mm
07:48 PM 64.9°F18.3°C 64.3°F17.9°C 98% 2.2 mph S3.5 kmh S 7.0 mph11.3 kmh 29.77 in1008.1 mb 0.00 in0.0 mm 0.00 in0.0 mm 1.03 in26.2 mm
07:53 PM 64.9°F18.3°C 64.3°F17.9°C 98% 1.6 mph SSE2.6 kmh SSE 7.0 mph11.3 kmh 29.77 in1008.1 mb 0.00 in0.0 mm 0.00 in0.0 mm 1.03 in26.2 mm
07:58 PM 64.9°F18.3°C 64.3°F17.9°C 98% 1.6 mph SSE2.6 kmh SSE 6.0 mph9.7 kmh 29.77 in1008.1 mb 0.00 in0.0 mm 0.00 in0.0 mm 1.03 in26.2 mm
08:02 PM 65.0°F18.3°C 64.4°F18.0°C 98% 1.7 mph S2.7 kmh S 6.0 mph9.7 kmh 29.77 in1008.1 mb 0.00 in0.0 mm 0.00 in0.0 mm 1.03 in26.2 mm
08:06 PM 65.0°F18.3°C 64.4°F18.0°C 98% 2.6 mph SW4.2 kmh SW 8.0 mph12.9 kmh 29.77 in1008.1 mb 0.00 in0.0 mm 0.00 in0.0 mm 1.03 in26.2 mm
08:12 PM 65.0°F18.3°C 64.4°F18.0°C 98% 1.6 mph SSW2.6 kmh SSW 8.0 mph12.9 kmh 29.77 in1008.1 mb 0.00 in0.0 mm 0.00 in0.0 mm 1.03 in26.2 mm
08:17 PM 65.0°F18.3°C 64.4°F18.0°C 98% Calm Calm 8.0 mph12.9 kmh 29.77 in1008.1 mb 0.00 in0.0 mm 0.00 in0.0 mm 1.03 in26.2 mm
08:22 PM 65.0°F18.3°C 64.4°F18.0°C 98% 2.0 mph SW3.2 kmh SW 8.0 mph12.9 kmh 29.77 in1008.1 mb 0.00 in0.0 mm 0.00 in0.0 mm 1.03 in26.2 mm
08:27 PM 65.0°F18.3°C 64.4°F18.0°C 98% 1.0 mph SW1.6 kmh SW 6.0 mph9.7 kmh 29.77 in1008.1 mb 0.00 in0.0 mm 0.00 in0.0 mm 1.03 in26.2 mm
08:32 PM 65.0°F18.3°C 64.4°F18.0°C 98% 1.8 mph SSW2.9 kmh SSW 5.0 mph8.0 kmh 29.77 in1008.1 mb 0.00 in0.0 mm 0.00 in0.0 mm 1.03 in26.2 mm
08:37 PM 65.1°F18.4°C 64.5°F18.1°C 98% 1.5 mph SSE2.4 kmh SSE 6.0 mph9.7 kmh 29.77 in1008.1 mb 0.00 in0.0 mm 0.00 in0.0 mm 1.03 in26.2 mm
08:42 PM 65.0°F18.3°C 64.4°F18.0°C 98% 1.5 mph SSE2.4 kmh SSE 6.0 mph9.7 kmh 29.77 in1008.1 mb 0.00 in0.0 mm 0.00 in0.0 mm 1.03 in26.2 mm
08:47 PM 65.1°F18.4°C 64.5°F18.1°C 98% 1.6 mph S2.6 kmh S 7.0 mph11.3 kmh 29.76 in1007.8 mb 0.00 in0.0 mm 0.00 in0.0 mm 1.03 in26.2 mm
08:52 PM 65.1°F18.4°C 64.5°F18.1°C 98% 2.0 mph S3.2 kmh S 7.0 mph11.3 kmh 29.76 in1007.8 mb 0.00 in0.0 mm 0.00 in0.0 mm 1.03 in26.2 mm
08:57 PM 65.2°F18.4°C 64.6°F18.1°C 98% 1.5 mph SW2.4 kmh SW 7.0 mph11.3 kmh 29.76 in1007.8 mb 0.00 in0.0 mm 0.00 in0.0 mm 1.03 in26.2 mm
09:02 PM 65.2°F18.4°C 64.6°F18.1°C 98% 1.3 mph SSW2.1 kmh SSW 7.0 mph11.3 kmh 29.76 in1007.8 mb 0.00 in0.0 mm 0.00 in0.0 mm 1.03 in26.2 mm
09:07 PM 65.2°F18.4°C 64.6°F18.1°C 98% 2.2 mph S3.5 kmh S 6.0 mph9.7 kmh 29.77 in1008.1 mb 0.00 in0.0 mm 0.00 in0.0 mm 1.03 in26.2 mm
09:12 PM 65.2°F18.4°C 64.6°F18.1°C 98% 1.7 mph SSW2.7 kmh SSW 6.0 mph9.7 kmh 29.76 in1007.8 mb 0.00 in0.0 mm 0.00 in0.0 mm 1.03 in26.2 mm
09:17 PM 65.3°F18.5°C 64.7°F18.2°C 98% 2.6 mph SSW4.2 kmh SSW 6.0 mph9.7 kmh 29.76 in1007.8 mb 0.00 in0.0 mm 0.00 in0.0 mm 1.03 in26.2 mm
09:22 PM 65.4°F18.6°C 64.8°F18.2°C 98% 1.5 mph SW2.4 kmh SW 7.0 mph11.3 kmh 29.76 in1007.8 mb 0.00 in0.0 mm 0.00 in0.0 mm 1.03 in26.2 mm
09:27 PM 65.5°F18.6°C 64.9°F18.3°C 98% 4.1 mph SSW6.6 kmh SSW 11.0 mph17.7 kmh 29.77 in1008.1 mb 0.00 in0.0 mm 0.00 in0.0 mm 1.03 in26.2 mm
09:32 PM 65.5°F18.6°C 64.9°F18.3°C 98% 1.9 mph SW3.1 kmh SW 11.0 mph17.7 kmh 29.77 in1008.1 mb 0.00 in0.0 mm 0.00 in0.0 mm 1.03 in26.2 mm
09:37 PM 65.6°F18.7°C 65.0°F18.3°C 98% 3.1 mph SW5.0 kmh SW 11.0 mph17.7 kmh 29.77 in1008.1 mb 0.00 in0.0 mm 0.00 in0.0 mm 1.03 in26.2 mm
09:42 PM 65.7°F18.7°C 65.1°F18.4°C 98% 3.3 mph SSW5.3 kmh SSW 11.0 mph17.7 kmh 29.77 in1008.1 mb 0.00 in0.0 mm 0.00 in0.0 mm 1.03 in26.2 mm
09:47 PM 65.7°F18.7°C 65.1°F18.4°C 98% 2.7 mph SSW4.3 kmh SSW 9.0 mph14.5 kmh 29.77 in1008.1 mb 0.00 in0.0 mm 0.00 in0.0 mm 1.03 in26.2 mm
09:52 PM 65.8°F18.8°C 65.2°F18.4°C 98% 3.0 mph SSW4.8 kmh SSW 11.0 mph17.7 kmh 29.77 in1008.1 mb 0.00 in0.0 mm 0.00 in0.0 mm 1.03 in26.2 mm
09:57 PM 65.9°F18.8°C 65.3°F18.5°C 98% 2.7 mph SSW4.3 kmh SSW 11.0 mph17.7 kmh 29.77 in1008.1 mb 0.00 in0.0 mm 0.00 in0.0 mm 1.03 in26.2 mm
10:02 PM 66.0°F18.9°C 65.1°F18.4°C 97% 2.5 mph SSW4.0 kmh SSW 11.0 mph17.7 kmh 29.78 in1008.5 mb 0.00 in0.0 mm 0.00 in0.0 mm 1.03 in26.2 mm
10:07 PM 66.0°F18.9°C 65.1°F18.4°C 97% 1.3 mph SW2.1 kmh SW 11.0 mph17.7 kmh 29.77 in1008.1 mb 0.00 in0.0 mm 0.00 in0.0 mm 1.03 in26.2 mm
10:12 PM 66.0°F18.9°C 65.1°F18.4°C 97% 1.9 mph S3.1 kmh S 11.0 mph17.7 kmh 29.77 in1008.1 mb 0.00 in0.0 mm 0.00 in0.0 mm 1.03 in26.2 mm
10:17 PM 66.0°F18.9°C 65.1°F18.4°C 97% 3.4 mph SSW5.5 kmh SSW 11.0 mph17.7 kmh 29.77 in1008.1 mb 0.00 in0.0 mm 0.00 in0.0 mm 1.03 in26.2 mm
10:22 PM 66.1°F18.9°C 65.2°F18.4°C 97% 2.7 mph S4.3 kmh S 11.0 mph17.7 kmh 29.77 in1008.1 mb 0.00 in0.0 mm 0.00 in0.0 mm 1.03 in26.2 mm
10:27 PM 66.1°F18.9°C 65.2°F18.4°C 97% 2.6 mph SSW4.2 kmh SSW 11.0 mph17.7 kmh 29.77 in1008.1 mb 0.00 in0.0 mm 0.00 in0.0 mm 1.03 in26.2 mm
10:32 PM 66.1°F18.9°C 65.2°F18.4°C 97% 3.3 mph S5.3 kmh S 12.0 mph19.3 kmh 29.77 in1008.1 mb 0.00 in0.0 mm 0.00 in0.0 mm 1.03 in26.2 mm
10:37 PM 66.0°F18.9°C 65.1°F18.4°C 97% 3.4 mph SSW5.5 kmh SSW 12.0 mph19.3 kmh 29.77 in1008.1 mb 0.00 in0.0 mm 0.00 in0.0 mm 1.03 in26.2 mm
10:42 PM 65.9°F18.8°C 65.0°F18.3°C 97% 3.7 mph SSW6.0 kmh SSW 12.0 mph19.3 kmh 29.76 in1007.8 mb 0.00 in0.0 mm 0.00 in0.0 mm 1.03 in26.2 mm
10:47 PM 65.8°F18.8°C 64.9°F18.3°C 97% 2.1 mph SSW3.4 kmh SSW 12.0 mph19.3 kmh 29.76 in1007.8 mb 0.00 in0.0 mm 0.00 in0.0 mm 1.03 in26.2 mm
10:52 PM 65.8°F18.8°C 65.2°F18.4°C 98% 3.0 mph SSW4.8 kmh SSW 12.0 mph19.3 kmh 29.76 in1007.8 mb 0.00 in0.0 mm 0.00 in0.0 mm 1.03 in26.2 mm
10:57 PM 65.7°F18.7°C 65.1°F18.4°C 98% 2.5 mph SSW4.0 kmh SSW 12.0 mph19.3 kmh 29.77 in1008.1 mb 0.00 in0.0 mm 0.00 in0.0 mm 1.03 in26.2 mm
11:02 PM 65.6°F18.7°C 65.0°F18.3°C 98% 1.8 mph S2.9 kmh S 10.0 mph16.1 kmh 29.77 in1008.1 mb 0.00 in0.0 mm 0.00 in0.0 mm 1.03 in26.2 mm
11:07 PM 65.6°F18.7°C 65.0°F18.3°C 98% 2.5 mph SSW4.0 kmh SSW 10.0 mph16.1 kmh 29.76 in1007.8 mb 0.00 in0.0 mm 0.00 in0.0 mm 1.03 in26.2 mm
11:12 PM 65.6°F18.7°C 65.0°F18.3°C 98% 2.2 mph SSW3.5 kmh SSW 9.0 mph14.5 kmh 29.76 in1007.8 mb 0.00 in0.0 mm 0.00 in0.0 mm 1.03 in26.2 mm
11:17 PM 65.6°F18.7°C 65.0°F18.3°C 98% 3.4 mph SSW5.5 kmh SSW 9.0 mph14.5 kmh 29.76 in1007.8 mb 0.00 in0.0 mm 0.00 in0.0 mm 1.03 in26.2 mm
11:22 PM 65.6°F18.7°C 65.0°F18.3°C 98% 2.2 mph S3.5 kmh S 9.0 mph14.5 kmh 29.76 in1007.8 mb 0.00 in0.0 mm 0.00 in0.0 mm 1.03 in26.2 mm
11:27 PM 65.5°F18.6°C 64.9°F18.3°C 98% 1.7 mph SSW2.7 kmh SSW 9.0 mph14.5 kmh 29.76 in1007.8 mb 0.00 in0.0 mm 0.00 in0.0 mm 1.03 in26.2 mm
11:32 PM 65.6°F18.7°C 65.0°F18.3°C 98% 2.6 mph S4.2 kmh S 9.0 mph14.5 kmh 29.77 in1008.1 mb 0.00 in0.0 mm 0.00 in0.0 mm 1.03 in26.2 mm
11:37 PM 65.5°F18.6°C 64.9°F18.3°C 98% 2.9 mph SSW4.7 kmh SSW 9.0 mph14.5 kmh 29.77 in1008.1 mb 0.00 in0.0 mm 0.00 in0.0 mm 1.03 in26.2 mm
11:42 PM 65.5°F18.6°C 64.9°F18.3°C 98% 2.0 mph S3.2 kmh S 10.0 mph16.1 kmh 29.77 in1008.1 mb 0.00 in0.0 mm 0.00 in0.0 mm 1.03 in26.2 mm
11:47 PM 65.5°F18.6°C 64.9°F18.3°C 98% 2.2 mph S3.5 kmh S 10.0 mph16.1 kmh 29.77 in1008.1 mb 0.00 in0.0 mm 0.00 in0.0 mm 1.03 in26.2 mm
11:52 PM 65.5°F18.6°C 64.9°F18.3°C 98% 2.6 mph SSW4.2 kmh SSW 10.0 mph16.1 kmh 29.77 in1008.1 mb 0.00 in0.0 mm 0.00 in0.0 mm 1.03 in26.2 mm
11:57 PM 65.5°F18.6°C 64.9°F18.3°C 98% 3.3 mph SSW5.3 kmh SSW 10.0 mph16.1 kmh 29.77 in1008.1 mb 0.00 in0.0 mm 0.00 in0.0 mm 1.03 in26.2 mm